Time;durP1;ratioP1;P1;durP2;ratioP2;P2;SDS_P1;SDS_P2;PMS_P1;PMS_P2;Temp;Humidity;BMP_temperature;BMP_pressure;BME280_temperature;BME280_humidity;BME280_pressure;Samples;Min_cycle;Max_cycle;Signal;HPM_P1;HPM_P2
2022/11/30 00:00:08;;;;;;;16.40;8.40;;;7.40;99.90;;;;;;5115247;28;20871;-61
2022/11/30 00:02:35;;;;;;;14.47;8.43;;;7.40;99.90;;;;;;5116662;28;20535;-61
2022/11/30 00:05:02;;;;;;;14.87;7.20;;;7.30;99.90;;;;;;5115825;28;20750;-61
2022/11/30 00:07:30;;;;;;;15.10;8.80;;;7.20;99.90;;;;;;5115841;28;20880;-61
2022/11/30 00:09:57;;;;;;;13.40;7.57;;;7.10;99.90;;;;;;5116233;28;20547;-61
2022/11/30 00:12:24;;;;;;;19.60;8.90;;;7.10;99.90;;;;;;5116241;28;20452;-61
2022/11/30 00:14:51;;;;;;;13.53;6.83;;;7.00;99.90;;;;;;5115995;28;20455;-61
2022/11/30 00:17:18;;;;;;;15.80;7.93;;;7.00;99.90;;;;;;5115492;28;20492;-61
2022/11/30 00:19:44;;;;;;;12.43;7.30;;;7.10;99.90;;;;;;5116054;28;20919;-61
2022/11/30 00:22:14;;;;;;;16.43;9.33;;;7.20;99.90;;;;;;5113352;28;20563;-61
2022/11/30 00:24:42;;;;;;;14.70;10.03;;;7.10;99.90;;;;;;5093613;28;20476;-61
2022/11/30 00:27:09;;;;;;;12.97;6.90;;;7.20;99.90;;;;;;5095189;28;20445;-61
2022/11/30 00:29:36;;;;;;;18.63;9.20;;;7.20;99.90;;;;;;5095054;28;20686;-60
2022/11/30 00:32:02;;;;;;;17.03;9.20;;;7.10;99.90;;;;;;5096319;28;20917;-62
2022/11/30 00:34:29;;;;;;;15.93;8.60;;;7.10;99.90;;;;;;5095686;28;20484;-62
2022/11/30 00:36:56;;;;;;;13.87;6.80;;;7.10;99.90;;;;;;5095834;28;20772;-62
2022/11/30 00:39:23;;;;;;;15.70;8.40;;;7.20;99.90;;;;;;5095870;28;20545;-60
2022/11/30 00:41:51;;;;;;;17.90;7.87;;;7.30;99.90;;;;;;5096410;28;20460;-61
2022/11/30 00:44:18;;;;;;;13.10;7.23;;;7.30;99.90;;;;;;5095185;28;20445;-60
2022/11/30 00:46:44;;;;;;;16.80;8.10;;;7.20;99.90;;;;;;5095404;28;20453;-60
2022/11/30 00:49:11;;;;;;;14.10;8.03;;;7.20;99.90;;;;;;5096025;28;20725;-61
2022/11/30 00:51:38;;;;;;;14.50;9.57;;;7.40;99.90;;;;;;5094717;28;20457;-60
2022/11/30 00:54:05;;;;;;;15.00;7.57;;;7.40;99.90;;;;;;5094616;28;20442;-61
2022/11/30 00:56:32;;;;;;;10.83;6.90;;;7.50;99.90;;;;;;5094088;28;20453;-61
2022/11/30 00:59:00;;;;;;;14.07;7.77;;;7.40;99.90;;;;;;5093959;28;20449;-61
2022/11/30 01:01:27;;;;;;;10.77;5.53;;;7.50;99.90;;;;;;5095315;28;20450;-60
2022/11/30 01:03:54;;;;;;;13.67;8.07;;;7.60;99.90;;;;;;5095584;28;20470;-61
2022/11/30 01:06:21;;;;;;;10.60;6.20;;;7.60;99.90;;;;;;5094916;28;20460;-60
2022/11/30 01:08:47;;;;;;;13.23;7.43;;;7.60;99.90;;;;;;5094410;28;20960;-61
2022/11/30 01:11:17;;;;;;;11.47;5.40;;;7.60;99.90;;;;;;5093432;28;20938;-61
2022/11/30 01:13:44;;;;;;;13.63;7.60;;;7.50;99.90;;;;;;5093731;28;20452;-61
2022/11/30 01:16:15;;;;;;;10.57;5.93;;;7.40;99.90;;;;;;5094318;28;20449;-60
2022/11/30 01:18:42;;;;;;;10.30;5.33;;;7.30;99.90;;;;;;5094672;28;20554;-61
2022/11/30 01:21:12;;;;;;;8.33;5.93;;;7.30;99.90;;;;;;5093660;28;20473;-61
2022/11/30 01:23:39;;;;;;;11.27;6.53;;;7.30;99.90;;;;;;5094549;28;20528;-61
2022/11/30 01:26:06;;;;;;;14.90;7.67;;;7.40;99.90;;;;;;5094443;28;20454;-65
2022/11/30 01:28:33;;;;;;;8.93;5.80;;;7.50;99.90;;;;;;5095209;28;20456;-61
2022/11/30 01:31:01;;;;;;;16.10;7.60;;;7.40;99.90;;;;;;5095479;28;20449;-61
2022/11/30 01:33:29;;;;;;;14.60;7.67;;;7.50;99.90;;;;;;5095775;28;20536;-61
2022/11/30 01:36:02;;;;;;;14.90;7.47;;;7.50;99.90;;;;;;5095299;28;20465;-61
2022/11/30 01:38:32;;;;;;;14.10;6.60;;;7.40;99.90;;;;;;5095238;28;21054;-61
2022/11/30 01:40:59;;;;;;;10.40;6.30;;;7.50;99.90;;;;;;5095606;28;20457;-61
2022/11/30 01:43:38;;;;;;;11.40;6.40;;;7.50;99.90;;;;;;5095619;28;20463;-61
2022/11/30 01:46:06;;;;;;;12.60;6.67;;;7.50;99.90;;;;;;5095541;28;20457;-62
2022/11/30 01:48:34;;;;;;;11.60;6.17;;;7.40;99.90;;;;;;5098020;28;20534;-61
2022/11/30 01:51:01;;;;;;;14.10;6.33;;;7.30;99.90;;;;;;5097886;28;20453;-61
2022/11/30 01:53:28;;;;;;;7.77;5.27;;;7.30;99.90;;;;;;5097775;28;20460;-61
2022/11/30 01:55:55;;;;;;;13.97;6.63;;;7.30;99.90;;;;;;5097895;28;20473;-61
2022/11/30 01:58:26;;;;;;;11.03;6.00;;;7.40;99.90;;;;;;5097539;28;20477;-61
2022/11/30 02:00:53;;;;;;;11.70;5.77;;;7.40;99.90;;;;;;5097180;28;20459;-61
2022/11/30 02:03:28;;;;;;;8.33;6.17;;;7.20;99.90;;;;;;5097951;28;20441;-61
2022/11/30 02:05:57;;;;;;;9.23;5.43;;;7.20;99.90;;;;;;5098620;28;20460;-61
2022/11/30 02:08:25;;;;;;;15.77;6.93;;;7.20;99.90;;;;;;5098718;28;20535;-61
2022/11/30 02:10:55;;;;;;;14.07;7.63;;;7.20;99.90;;;;;;5098769;28;20460;-61
2022/11/30 02:13:40;;;;;;;16.27;7.20;;;7.10;99.90;;;;;;5098539;28;21060;-61
2022/11/30 02:16:19;;;;;;;9.50;5.73;;;7.10;99.90;;;;;;5098760;28;20450;-62
2022/11/30 02:18:53;;;;;;;10.97;5.83;;;7.10;99.90;;;;;;5098425;28;20477;-62
2022/11/30 02:21:32;;;;;;;13.03;5.43;;;7.20;99.90;;;;;;5098789;28;20472;-62
2022/11/30 02:24:17;;;;;;;17.23;7.30;;;7.20;99.90;;;;;;5098345;28;20540;-62
2022/11/30 02:26:56;;;;;;;10.03;5.20;;;7.10;99.90;;;;;;5098968;28;20457;-62
2022/11/30 02:29:28;;;;;;;13.53;5.40;;;7.00;99.90;;;;;;5098300;28;20453;-62
2022/11/30 02:32:01;;;;;;;12.77;6.67;;;7.00;99.90;;;;;;5098172;28;20460;-62
2022/11/30 02:34:31;;;;;;;12.87;5.20;;;7.00;99.90;;;;;;5097884;28;20448;-62
2022/11/30 02:37:00;;;;;;;14.70;6.10;;;6.90;99.90;;;;;;5098366;28;20485;-62
2022/11/30 02:39:27;;;;;;;13.47;6.83;;;7.00;99.90;;;;;;5098357;28;20533;-62
2022/11/30 02:41:54;;;;;;;15.23;5.73;;;7.10;99.90;;;;;;5098598;28;20495;-62
2022/11/30 02:44:22;;;;;;;9.37;5.50;;;7.20;99.90;;;;;;5098294;28;20442;-62
2022/11/30 02:47:01;;;;;;;8.87;5.03;;;7.30;99.90;;;;;;5097888;28;20459;-61
2022/11/30 02:49:35;;;;;;;11.33;5.00;;;7.30;99.90;;;;;;5097638;28;20445;-61
2022/11/30 02:52:05;;;;;;;11.50;6.00;;;7.20;99.90;;;;;;5096897;28;20450;-61
2022/11/30 02:54:32;;;;;;;7.17;4.37;;;7.20;99.90;;;;;;5097790;28;20461;-62
2022/11/30 02:56:59;;;;;;;9.27;3.97;;;7.20;99.90;;;;;;5097662;28;20493;-62
2022/11/30 02:59:26;;;;;;;13.37;5.80;;;7.20;99.90;;;;;;5097513;28;20575;-62
2022/11/30 03:01:55;;;;;;;10.80;4.30;;;7.30;99.90;;;;;;5097166;28;20449;-61
2022/11/30 03:04:21;;;;;;;10.20;3.80;;;7.20;99.90;;;;;;5097604;28;20901;-61
2022/11/30 03:06:48;;;;;;;9.40;4.50;;;7.30;99.90;;;;;;5097582;28;20548;-61
2022/11/30 03:09:15;;;;;;;10.80;4.50;;;7.40;99.90;;;;;;5097617;28;20445;-61
2022/11/30 03:11:42;;;;;;;9.67;4.60;;;7.40;99.90;;;;;;5096906;28;20453;-61
2022/11/30 03:14:09;;;;;;;7.20;3.37;;;7.40;99.90;;;;;;5106911;28;20437;-61
2022/11/30 03:16:37;;;;;;;12.13;4.43;;;7.50;99.90;;;;;;5117640;28;20448;-61
2022/11/30 03:19:05;;;;;;;6.50;4.47;;;7.50;99.90;;;;;;5117318;28;20480;-61
2022/11/30 03:21:32;;;;;;;7.60;3.77;;;7.60;99.90;;;;;;5117266;28;20926;-61
2022/11/30 03:23:58;;;;;;;8.97;4.50;;;7.50;99.90;;;;;;5117431;28;20538;-61
2022/11/30 03:26:25;;;;;;;10.27;4.20;;;7.40;99.90;;;;;;5117692;28;20453;-61
2022/11/30 03:28:52;;;;;;;10.70;4.03;;;7.30;99.90;;;;;;5116218;28;20447;-61
2022/11/30 03:31:19;;;;;;;5.90;3.50;;;7.20;99.90;;;;;;5117063;28;20764;-61
2022/11/30 03:33:46;;;;;;;9.80;3.70;;;7.20;99.90;;;;;;5117391;28;20539;-61
2022/11/30 03:36:14;;;;;;;8.17;4.50;;;7.10;99.90;;;;;;5117724;28;20762;-61
2022/11/30 03:38:41;;;;;;;11.27;4.67;;;7.00;99.90;;;;;;5110098;28;20802;-61
2022/11/30 03:41:10;;;;;;;9.07;3.77;;;7.00;99.90;;;;;;5096817;28;20450;-60
2022/11/30 03:43:37;;;;;;;6.70;3.13;;;7.00;99.90;;;;;;5096910;28;20903;-61
2022/11/30 03:46:04;;;;;;;10.97;4.20;;;7.10;99.90;;;;;;5096843;28;20458;-60
2022/11/30 03:48:32;;;;;;;7.03;3.83;;;7.20;99.90;;;;;;5109766;28;20471;-60
2022/11/30 03:50:59;;;;;;;6.80;3.60;;;7.10;99.90;;;;;;5117409;28;20453;-61
2022/11/30 03:53:27;;;;;;;6.87;3.87;;;7.10;99.90;;;;;;5117204;28;20441;-61
2022/11/30 03:55:55;;;;;;;7.73;4.20;;;7.10;99.90;;;;;;5117418;28;20459;-61
2022/11/30 03:58:23;;;;;;;6.13;3.00;;;7.40;99.90;;;;;;5116303;28;20533;-61
2022/11/30 04:00:51;;;;;;;6.40;3.60;;;7.40;99.90;;;;;;5117355;28;20480;-60
2022/11/30 04:03:18;;;;;;;9.53;3.97;;;7.20;99.90;;;;;;5117028;28;20468;-61
2022/11/30 04:05:47;;;;;;;8.23;3.80;;;7.20;99.90;;;;;;5116874;28;20466;-61
2022/11/30 04:08:14;;;;;;;8.47;4.20;;;7.10;99.90;;;;;;5116563;28;20444;-60
2022/11/30 04:10:42;;;;;;;7.23;3.40;;;7.00;99.90;;;;;;5116664;28;20750;-60
2022/11/30 04:13:09;;;;;;;6.43;3.63;;;7.00;99.90;;;;;;5115976;28;20757;-61
2022/11/30 04:15:35;;;;;;;7.50;3.23;;;7.10;99.90;;;;;;5116331;28;20447;-61
2022/11/30 04:18:02;;;;;;;7.63;4.03;;;7.00;99.90;;;;;;5116652;28;20486;-61
2022/11/30 04:20:29;;;;;;;7.00;3.63;;;7.00;99.90;;;;;;5116549;28;20473;-61
2022/11/30 04:22:57;;;;;;;6.63;4.60;;;7.00;99.90;;;;;;5116726;28;20483;-61
2022/11/30 04:25:24;;;;;;;6.20;3.63;;;7.10;99.90;;;;;;5117195;28;20445;-61
2022/11/30 04:27:52;;;;;;;8.43;3.40;;;7.00;99.90;;;;;;5116425;28;20451;-61
2022/11/30 04:30:19;;;;;;;6.40;3.30;;;6.80;99.90;;;;;;5116744;28;20535;-61
2022/11/30 04:32:46;;;;;;;7.77;3.10;;;6.80;99.90;;;;;;5116030;28;20457;-61
2022/11/30 04:35:12;;;;;;;7.67;3.43;;;6.80;99.90;;;;;;5116351;28;20449;-61
2022/11/30 04:37:39;;;;;;;7.20;2.53;;;6.80;99.90;;;;;;5115060;28;20452;-62
2022/11/30 04:40:07;;;;;;;8.13;3.60;;;6.80;99.90;;;;;;5116271;28;20452;-62
2022/11/30 04:42:34;;;;;;;6.13;2.87;;;6.80;99.90;;;;;;5116416;28;20947;-62
2022/11/30 04:45:03;;;;;;;8.23;2.40;;;6.80;99.90;;;;;;5116247;28;20477;-61
2022/11/30 04:47:30;;;;;;;8.07;3.37;;;6.90;99.90;;;;;;5115567;28;20556;-61
2022/11/30 04:49:57;;;;;;;8.80;4.47;;;6.90;99.90;;;;;;5116438;28;20720;-61
2022/11/30 04:52:24;;;;;;;6.93;2.17;;;6.90;99.90;;;;;;5116020;28;20459;-62
2022/11/30 04:54:51;;;;;;;6.17;2.70;;;6.90;99.90;;;;;;5116379;28;20948;-62
2022/11/30 04:57:19;;;;;;;4.83;2.83;;;7.00;99.90;;;;;;5116576;28;20460;-62
2022/11/30 04:59:46;;;;;;;8.90;3.03;;;7.00;99.90;;;;;;5116548;28;20477;-62
2022/11/30 05:02:14;;;;;;;5.50;3.30;;;7.00;99.90;;;;;;5115409;28;20558;-62
2022/11/30 05:04:41;;;;;;;6.63;3.17;;;7.00;99.90;;;;;;5115477;28;20544;-62
2022/11/30 05:07:07;;;;;;;8.03;2.27;;;7.00;99.90;;;;;;5115995;28;20453;-62
2022/11/30 05:09:34;;;;;;;5.53;2.57;;;7.10;99.90;;;;;;5116643;28;20447;-62
2022/11/30 05:12:01;;;;;;;6.20;3.03;;;7.10;99.90;;;;;;5116134;28;20460;-62
2022/11/30 05:14:28;;;;;;;6.30;3.50;;;7.20;99.90;;;;;;5114772;28;20444;-62
2022/11/30 05:16:55;;;;;;;6.30;2.97;;;7.10;99.90;;;;;;5115120;28;20452;-63
2022/11/30 05:19:23;;;;;;;5.77;3.00;;;7.10;99.90;;;;;;5115192;28;20588;-62
2022/11/30 05:21:50;;;;;;;7.20;2.63;;;7.20;99.90;;;;;;5116219;28;20963;-62
2022/11/30 05:24:17;;;;;;;4.10;1.80;;;7.20;99.90;;;;;;5120012;28;20441;-62
2022/11/30 05:26:45;;;;;;;4.93;1.90;;;7.20;99.90;;;;;;5118933;28;20491;-62
2022/11/30 05:29:12;;;;;;;5.10;2.17;;;7.10;99.90;;;;;;5118579;28;20732;-62
2022/11/30 05:31:39;;;;;;;4.83;2.03;;;7.10;99.90;;;;;;5118923;28;20452;-62
2022/11/30 05:34:06;;;;;;;4.87;2.60;;;7.00;99.90;;;;;;5119832;28;20470;-62
2022/11/30 05:36:34;;;;;;;8.17;3.30;;;7.00;99.90;;;;;;5118567;28;20883;-62
2022/11/30 05:39:01;;;;;;;4.83;2.13;;;6.90;99.90;;;;;;5118622;28;20478;-62
2022/11/30 05:41:28;;;;;;;3.93;2.53;;;6.90;99.90;;;;;;5118735;28;20448;-62
2022/11/30 05:43:55;;;;;;;7.23;2.93;;;7.10;99.90;;;;;;5118677;28;20448;-62
2022/11/30 05:46:22;;;;;;;8.17;3.20;;;7.10;99.90;;;;;;5119099;28;20497;-62
2022/11/30 05:48:48;;;;;;;6.20;3.20;;;7.00;99.90;;;;;;5118452;28;20440;-62
2022/11/30 05:51:17;;;;;;;5.50;2.40;;;7.00;99.90;;;;;;5119630;28;20448;-62
2022/11/30 05:53:46;;;;;;;6.30;2.53;;;7.10;99.90;;;;;;5119645;28;20531;-63
2022/11/30 05:56:15;;;;;;;7.63;3.90;;;7.10;99.90;;;;;;5117203;28;20551;-61
2022/11/30 05:58:42;;;;;;;6.10;2.53;;;7.20;99.90;;;;;;5095824;28;20481;-63
2022/11/30 06:01:17;;;;;;;4.60;2.13;;;7.10;99.90;;;;;;5097424;28;20557;-62
2022/11/30 06:03:43;;;;;;;7.37;3.37;;;7.10;99.90;;;;;;5096952;28;20452;-61
2022/11/30 06:06:10;;;;;;;5.70;2.90;;;7.10;99.90;;;;;;5097939;28;20518;-62
2022/11/30 06:08:37;;;;;;;5.70;2.77;;;7.20;99.90;;;;;;5098104;28;20446;-61
2022/11/30 06:11:05;;;;;;;4.63;2.70;;;7.30;99.90;;;;;;5097704;28;20504;-60
2022/11/30 06:13:32;;;;;;;5.83;1.93;;;7.20;99.90;;;;;;5098269;28;20454;-61
2022/11/30 06:15:59;;;;;;;5.80;3.60;;;7.40;99.90;;;;;;5109295;28;20432;-61
2022/11/30 06:18:26;;;;;;;5.90;3.90;;;7.40;99.90;;;;;;5116064;28;21037;-61
2022/11/30 06:20:53;;;;;;;6.53;4.70;;;7.40;99.90;;;;;;5116511;28;20416;-60
2022/11/30 06:23:20;;;;;;;6.28;3.53;;;7.30;99.90;;;;;;5116701;28;20424;-61
2022/11/30 06:25:47;;;;;;;6.60;3.88;;;7.40;99.90;;;;;;5115861;28;20443;-60
2022/11/30 06:28:15;;;;;;;4.75;2.95;;;7.60;99.90;;;;;;5116859;28;20420;-60
2022/11/30 06:30:42;;;;;;;5.00;3.85;;;7.80;99.90;;;;;;5116366;28;20511;-61
2022/11/30 06:33:09;;;;;;;5.45;3.65;;;8.00;99.90;;;;;;5115808;28;20442;-60
2022/11/30 06:35:36;;;;;;;4.90;2.65;;;7.90;99.90;;;;;;5116718;28;20412;-60
2022/11/30 06:38:03;;;;;;;4.53;2.80;;;7.80;99.90;;;;;;5111860;28;20436;-60
2022/11/30 06:40:31;;;;;;;4.80;3.20;;;7.90;99.90;;;;;;5102946;28;20438;-60
2022/11/30 06:42:57;;;;;;;7.27;4.33;;;7.80;99.90;;;;;;5104618;28;20432;-60
2022/11/30 06:45:26;;;;;;;5.07;3.38;;;7.70;99.90;;;;;;5116283;28;20503;-60
2022/11/30 06:47:55;;;;;;;6.50;4.60;;;7.60;99.90;;;;;;5115906;28;20706;-60
2022/11/30 06:50:22;;;;;;;8.17;4.20;;;7.50;99.90;;;;;;5116674;28;20416;-60
2022/11/30 06:52:49;;;;;;;5.35;3.55;;;7.50;99.90;;;;;;5114526;28;20484;-60
2022/11/30 06:55:16;;;;;;;6.30;4.40;;;7.60;99.90;;;;;;5115633;28;20419;-60
2022/11/30 06:57:43;;;;;;;5.82;4.40;;;7.70;99.90;;;;;;5115107;28;20524;-60
2022/11/30 07:00:12;;;;;;;6.90;4.28;;;7.60;99.90;;;;;;5115846;28;20428;-60
2022/11/30 07:02:40;;;;;;;5.65;4.00;;;7.70;99.90;;;;;;5115435;28;20412;-60
2022/11/30 07:05:07;;;;;;;5.85;3.72;;;7.70;99.90;;;;;;5116552;28;20831;-60
2022/11/30 07:07:34;;;;;;;4.90;4.15;;;7.60;99.90;;;;;;5115500;28;20875;-60
2022/11/30 07:10:00;;;;;;;5.75;3.30;;;7.60;99.90;;;;;;5115009;28;20428;-60
2022/11/30 07:12:27;;;;;;;5.85;4.03;;;7.70;99.90;;;;;;5114698;28;20412;-59
2022/11/30 07:14:55;;;;;;;4.72;3.75;;;7.70;99.90;;;;;;5111569;28;20428;-59
2022/11/30 07:17:22;;;;;;;5.40;3.47;;;7.60;99.90;;;;;;5115006;28;20859;-60
2022/11/30 07:19:50;;;;;;;5.03;3.60;;;7.60;99.90;;;;;;5114815;28;20758;-60
2022/11/30 07:22:17;;;;;;;6.07;4.30;;;7.60;99.90;;;;;;5114869;28;20432;-59
2022/11/30 07:27:28;;;;;;;7.97;4.10;;;7.50;99.90;;;;;;5113298;28;20771;-61
2022/11/30 07:29:55;;;;;;;9.15;4.75;;;7.50;99.90;;;;;;5114085;28;20417;-61
2022/11/30 07:32:22;;;;;;;5.45;3.88;;;7.40;99.90;;;;;;5113412;28;21114;-61
2022/11/30 07:34:50;;;;;;;9.13;6.32;;;7.50;99.90;;;;;;5114292;28;20424;-61
2022/11/30 07:37:17;;;;;;;8.30;5.10;;;7.70;99.90;;;;;;5113331;28;20900;-61
2022/11/30 07:39:44;;;;;;;8.20;5.00;;;8.00;99.90;;;;;;5112846;28;20895;-60
2022/11/30 07:42:11;;;;;;;7.10;4.90;;;8.10;99.90;;;;;;5109446;28;20438;-61
2022/11/30 07:44:38;;;;;;;6.93;4.15;;;8.30;99.90;;;;;;5111930;28;20436;-61
2022/11/30 07:47:04;;;;;;;8.63;4.60;;;8.30;99.90;;;;;;5111780;28;20738;-62
2022/11/30 07:49:31;;;;;;;6.60;5.00;;;8.10;99.90;;;;;;5112069;28;20430;-61
2022/11/30 07:51:59;;;;;;;8.80;4.97;;;7.80;99.90;;;;;;5110626;28;20497;-61
2022/11/30 07:54:27;;;;;;;8.57;5.05;;;7.70;99.90;;;;;;5110709;28;20438;-61
2022/11/30 07:56:53;;;;;;;7.45;4.80;;;7.60;99.90;;;;;;5112428;28;20432;-59
2022/11/30 07:59:20;;;;;;;10.25;5.10;;;7.80;99.90;;;;;;5110227;28;20439;-59
2022/11/30 08:01:47;;;;;;;7.78;4.90;;;7.80;99.90;;;;;;5104296;28;20420;-59
2022/11/30 08:04:14;;;;;;;8.30;5.50;;;7.80;99.90;;;;;;5102628;28;20485;-60
2022/11/30 08:06:41;;;;;;;7.13;5.00;;;7.90;99.90;;;;;;5097970;28;20442;-59
2022/11/30 08:09:12;;;;;;;7.50;4.95;;;8.20;99.90;;;;;;5093056;28;20413;-59
2022/11/30 08:11:39;;;;;;;8.82;5.50;;;8.20;99.90;;;;;;5112245;28;20732;-59
2022/11/30 08:14:05;;;;;;;9.32;5.60;;;8.10;99.90;;;;;;5114002;28;20430;-59
2022/11/30 08:16:36;;;;;;;9.90;5.47;;;8.00;99.90;;;;;;5106452;28;20433;-59
2022/11/30 08:19:03;;;;;;;8.50;5.63;;;7.90;99.90;;;;;;5113962;28;21103;-59
2022/11/30 08:21:31;;;;;;;9.80;6.45;;;7.70;99.90;;;;;;5100506;28;20428;-60
2022/11/30 08:23:57;;;;;;;9.93;6.50;;;7.70;99.90;;;;;;5112915;28;20436;-59
2022/11/30 08:26:28;;;;;;;10.68;6.60;;;7.70;99.90;;;;;;5109107;28;20427;-59
2022/11/30 08:28:57;;;;;;;8.63;6.57;;;7.60;99.90;;;;;;5113559;28;20786;-60
2022/11/30 08:31:26;;;;;;;9.85;6.90;;;7.60;99.90;;;;;;5107702;28;20420;-59
2022/11/30 08:33:56;;;;;;;8.25;5.90;;;7.60;99.90;;;;;;5111271;28;20489;-59
2022/11/30 08:36:25;;;;;;;9.50;6.70;;;7.50;99.90;;;;;;5111463;28;20905;-59
2022/11/30 08:38:52;;;;;;;9.77;6.18;;;7.50;99.90;;;;;;5111379;28;20432;-60
2022/11/30 08:41:21;;;;;;;10.13;5.80;;;7.50;99.90;;;;;;5111009;28;20804;-60
2022/11/30 08:43:50;;;;;;;10.60;6.53;;;7.50;99.90;;;;;;5106266;28;20439;-59
2022/11/30 08:46:18;;;;;;;11.43;7.00;;;7.40;99.90;;;;;;5109041;28;20893;-59
2022/11/30 08:48:45;;;;;;;9.88;6.22;;;7.40;99.90;;;;;;5110891;28;20428;-59
2022/11/30 08:51:13;;;;;;;9.60;6.80;;;7.50;99.90;;;;;;5100696;28;20433;-59
2022/11/30 08:53:41;;;;;;;9.45;6.18;;;7.60;99.90;;;;;;5107699;28;20435;-59
2022/11/30 08:56:11;;;;;;;8.98;5.70;;;7.50;99.90;;;;;;5098391;28;20434;-59
2022/11/30 08:58:40;;;;;;;11.00;6.70;;;7.60;99.90;;;;;;5096009;28;20421;-60
2022/11/30 09:01:09;;;;;;;11.05;6.18;;;7.60;99.90;;;;;;5106693;28;20718;-60
2022/11/30 09:03:37;;;;;;;9.93;5.72;;;7.60;99.90;;;;;;5115304;28;20439;-60
2022/11/30 09:06:06;;;;;;;8.70;6.00;;;7.70;99.90;;;;;;5113903;28;20597;-61
2022/11/30 09:08:34;;;;;;;9.35;6.43;;;7.70;99.90;;;;;;5109975;28;20457;-60
2022/11/30 09:11:08;;;;;;;10.23;6.07;;;7.80;99.90;;;;;;5113529;28;20427;-61
2022/11/30 09:13:35;;;;;;;10.15;6.85;;;7.70;99.90;;;;;;5112484;28;20734;-61
2022/11/30 09:16:02;;;;;;;10.15;5.72;;;7.70;99.90;;;;;;5103951;28;20738;-61
2022/11/30 09:18:31;;;;;;;11.10;6.28;;;7.80;99.90;;;;;;5106708;28;20451;-61
2022/11/30 09:21:00;;;;;;;9.57;6.23;;;7.90;99.90;;;;;;5116159;28;20735;-61
2022/11/30 09:23:28;;;;;;;10.90;6.47;;;8.00;99.90;;;;;;5111061;28;20434;-61
2022/11/30 09:25:56;;;;;;;10.48;5.95;;;7.80;99.90;;;;;;5109735;28;20439;-60
2022/11/30 09:28:23;;;;;;;9.13;6.70;;;7.90;99.90;;;;;;5112200;28;20432;-58
2022/11/30 09:30:50;;;;;;;9.63;5.72;;;7.90;99.90;;;;;;5112328;28;20438;-59
2022/11/30 09:33:16;;;;;;;8.68;5.97;;;8.00;99.90;;;;;;5103150;28;20440;-61
2022/11/30 09:35:45;;;;;;;9.60;5.70;;;8.00;99.90;;;;;;5103839;28;20847;-61
2022/11/30 09:38:11;;;;;;;9.90;6.32;;;8.10;99.90;;;;;;5108050;28;20501;-60
2022/11/30 09:40:41;;;;;;;9.60;5.63;;;8.20;99.90;;;;;;5111547;28;20738;-58
2022/11/30 09:43:22;;;;;;;9.70;7.13;;;8.30;99.90;;;;;;5113514;28;20514;-59
2022/11/30 09:45:54;;;;;;;11.02;6.90;;;8.40;99.90;;;;;;5100420;28;20999;-60
2022/11/30 09:48:33;;;;;;;9.73;6.10;;;8.50;99.90;;;;;;5104578;28;20429;-58
2022/11/30 09:51:09;;;;;;;10.60;6.82;;;8.40;99.90;;;;;;5115962;28;20505;-59
2022/11/30 09:53:41;;;;;;;13.43;6.43;;;8.30;99.90;;;;;;5115843;28;20428;-61
2022/11/30 09:56:19;;;;;;;9.68;6.80;;;8.30;99.90;;;;;;5109244;28;20448;-60
2022/11/30 09:58:48;;;;;;;9.88;5.75;;;8.20;99.90;;;;;;5100969;28;20424;-60
2022/11/30 10:01:18;;;;;;;8.98;5.30;;;8.20;99.90;;;;;;5106764;28;20440;-60
2022/11/30 10:03:45;;;;;;;9.32;4.60;;;8.10;99.90;;;;;;5101081;28;20456;-60
2022/11/30 10:06:20;;;;;;;7.40;4.97;;;8.10;99.90;;;;;;5107131;28;20432;-60
2022/11/30 10:09:01;;;;;;;7.83;5.20;;;8.00;99.90;;;;;;5114207;28;20542;-58
2022/11/30 10:11:41;;;;;;;9.00;5.28;;;8.10;99.90;;;;;;5113800;28;20434;-59
2022/11/30 10:14:24;;;;;;;8.20;4.82;;;8.00;99.90;;;;;;5113612;28;20538;-59
2022/11/30 10:17:02;;;;;;;8.85;5.35;;;8.00;99.90;;;;;;5114272;28;20420;-60
2022/11/30 10:19:43;;;;;;;9.90;5.38;;;8.10;99.90;;;;;;5095141;28;21013;-60
2022/11/30 10:22:21;;;;;;;8.85;5.90;;;8.20;99.90;;;;;;5094938;28;20443;-60
2022/11/30 10:25:03;;;;;;;8.43;5.80;;;8.30;99.90;;;;;;5114184;28;20438;-60
2022/11/30 10:27:40;;;;;;;8.27;5.68;;;8.40;99.90;;;;;;5113738;28;20424;-59
2022/11/30 10:30:13;;;;;;;10.10;5.80;;;8.50;99.90;;;;;;5114516;28;20469;-59
2022/11/30 10:32:43;;;;;;;7.00;5.40;;;8.70;99.90;;;;;;5111745;28;20775;-60
2022/11/30 10:35:33;;;;;;;8.05;5.50;;;8.70;99.90;;;;;;5093709;28;20468;-60
2022/11/30 10:38:11;;;;;;;7.72;4.90;;;8.80;99.90;;;;;;5095321;28;20848;-60
2022/11/30 10:40:44;;;;;;;8.27;5.10;;;8.80;97.00;;;;;;5101144;28;20481;-60
2022/11/30 10:43:17;;;;;;;8.90;4.60;;;8.80;99.20;;;;;;5112773;28;20527;-60
2022/11/30 10:45:48;;;;;;;6.72;4.35;;;8.80;68.90;;;;;;5104465;28;20458;-60
2022/11/30 10:48:21;;;;;;;9.07;4.90;;;8.50;48.20;;;;;;5102224;28;20417;-60
2022/11/30 10:50:48;;;;;;;6.20;4.28;;;8.30;88.00;;;;;;5107091;28;20440;-60
2022/11/30 10:53:16;;;;;;;8.57;4.88;;;8.10;79.90;;;;;;5102586;28;20436;-60
2022/11/30 10:55:49;;;;;;;9.40;4.35;;;8.20;95.10;;;;;;5112685;28;20835;-60
2022/11/30 10:58:22;;;;;;;6.95;3.60;;;8.10;93.10;;;;;;5111138;28;20432;-60
2022/11/30 11:00:56;;;;;;;5.47;3.15;;;8.20;89.80;;;;;;5113262;28;20428;-60
2022/11/30 11:03:25;;;;;;;4.95;2.35;;;8.20;47.30;;;;;;5111696;28;20750;-61
2022/11/30 11:06:04;;;;;;;4.60;2.10;;;8.20;39.40;;;;;;5113047;28;21008;-60
2022/11/30 11:08:33;;;;;;;6.03;2.70;;;8.20;53.30;;;;;;5114797;28;20504;-60
2022/11/30 11:10:59;;;;;;;4.68;2.35;;;8.20;43.80;;;;;;5111996;28;20586;-60
2022/11/30 11:13:37;;;;;;;4.07;2.05;;;8.20;30.80;;;;;;5111779;28;20477;-61
2022/11/30 11:16:05;;;;;;;5.28;2.90;;;8.20;54.20;;;;;;5112360;28;20740;-61
2022/11/30 11:18:33;;;;;;;6.43;3.10;;;8.10;55.30;;;;;;5107997;28;20519;-60
2022/11/30 11:21:03;;;;;;;6.25;3.60;;;8.00;61.00;;;;;;5112790;28;20865;-61
2022/11/30 11:23:34;;;;;;;6.40;3.20;;;8.10;62.30;;;;;;5113282;28;20859;-60
2022/11/30 11:26:01;;;;;;;5.82;3.67;;;8.10;71.70;;;;;;5112477;28;20462;-60
2022/11/30 11:28:29;;;;;;;5.40;3.60;;;8.00;68.60;;;;;;5111586;28;20422;-60
2022/11/30 11:30:58;;;;;;;6.15;3.28;;;8.00;79.10;;;;;;5108218;28;20424;-60
2022/11/30 11:33:27;;;;;;;8.80;4.70;;;8.00;70.10;;;;;;5112328;28;20509;-60
2022/11/30 11:35:55;;;;;;;11.32;5.35;;;8.10;93.20;;;;;;5112363;28;20523;-60
2022/11/30 11:38:26;;;;;;;7.55;3.85;;;8.10;95.50;;;;;;5114140;28;20485;-60
2022/11/30 11:40:59;;;;;;;7.03;3.58;;;8.20;83.20;;;;;;5110112;28;20436;-60
2022/11/30 11:43:29;;;;;;;6.95;3.72;;;8.30;81.60;;;;;;5109190;28;20500;-60
2022/11/30 11:46:01;;;;;;;6.45;3.90;;;8.40;91.00;;;;;;5103023;28;20438;-60
2022/11/30 11:48:33;;;;;;;5.13;3.40;;;8.50;48.90;;;;;;5099151;28;20432;-60
2022/11/30 11:51:02;;;;;;;6.00;3.92;;;8.60;53.20;;;;;;5092206;28;20890;-60
2022/11/30 11:53:44;;;;;;;6.97;4.10;;;8.60;62.00;;;;;;5101416;28;20886;-60
2022/11/30 11:56:16;;;;;;;8.57;5.45;;;8.60;74.30;;;;;;5110528;28;20476;-60
2022/11/30 11:58:49;;;;;;;7.13;4.00;;;8.50;87.90;;;;;;5105433;28;20490;-60
2022/11/30 12:01:25;;;;;;;10.17;5.87;;;8.40;91.10;;;;;;5092029;28;20856;-59
2022/11/30 12:04:02;;;;;;;8.98;5.55;;;8.30;97.70;;;;;;5099023;28;20434;-60
2022/11/30 12:06:30;;;;;;;7.55;5.00;;;8.40;99.50;;;;;;5111869;28;20432;-60
2022/11/30 12:09:02;;;;;;;6.47;4.60;;;8.40;99.90;;;;;;5113124;28;20420;-60
2022/11/30 12:11:40;;;;;;;7.50;5.22;;;8.50;99.90;;;;;;5111486;28;20432;-60
2022/11/30 12:14:11;;;;;;;6.03;3.80;;;8.60;99.90;;;;;;5111372;28;20429;-60
2022/11/30 12:16:50;;;;;;;7.82;4.35;;;8.60;63.50;;;;;;5111845;28;20434;-60
2022/11/30 12:19:22;;;;;;;5.38;3.42;;;8.50;94.60;;;;;;5111755;28;20434;-59
2022/11/30 12:22:00;;;;;;;7.53;4.70;;;8.50;95.50;;;;;;5111999;28;20428;-60
2022/11/30 12:24:54;;;;;;;6.18;3.35;;;8.50;99.90;;;;;;5112992;28;20516;-60
2022/11/30 12:27:38;;;;;;;6.65;3.97;;;8.40;95.60;;;;;;5113376;28;20423;-61
2022/11/30 12:30:12;;;;;;;7.20;3.83;;;8.40;99.90;;;;;;5109402;28;20428;-61
2022/11/30 12:33:02;;;;;;;321.52;39.92;;;8.20;99.90;;;;;;5108525;28;20428;-59
2022/11/30 12:35:38;;;;;;;15.95;4.80;;;8.20;99.90;;;;;;5107756;28;20431;-58
2022/11/30 12:38:15;;;;;;;5.30;2.50;;;8.30;92.20;;;;;;5112197;28;20450;-58
2022/11/30 12:40:49;;;;;;;5.75;3.70;;;8.30;91.30;;;;;;5109059;28;20463;-60
2022/11/30 12:46:18;;;;;;;6.35;3.88;;;8.40;86.20;;;;;;5108218;28;20850;-59
2022/11/30 12:49:00;;;;;;;5.73;3.00;;;8.50;97.00;;;;;;5110607;28;20751;-59
2022/11/30 12:51:33;;;;;;;4.40;3.23;;;8.50;59.80;;;;;;5107013;28;20730;-59
2022/11/30 12:54:07;;;;;;;5.75;2.92;;;8.60;43.80;;;;;;5106778;28;20435;-59
2022/11/30 12:56:41;;;;;;;4.80;2.87;;;8.70;43.50;;;;;;5096210;28;20430;-59
2022/11/30 12:59:22;;;;;;;6.18;3.70;;;8.80;39.10;;;;;;5108137;28;20416;-59
2022/11/30 13:02:08;;;;;;;6.68;3.60;;;8.70;26.60;;;;;;5109818;28;20456;-59
2022/11/30 13:04:40;;;;;;;6.78;3.83;;;8.60;27.50;;;;;;5100470;28;20428;-59
2022/11/30 13:07:14;;;;;;;5.32;3.47;;;8.50;60.60;;;;;;5108477;28;21097;-59
2022/11/30 13:09:47;;;;;;;6.45;3.45;;;8.40;60.50;;;;;;5106510;28;20442;-59